Time;durP1;ratioP1;P1;durP2;ratioP2;P2;SDS_P1;SDS_P2;PMS_P1;PMS_P2;Temp;Humidity;BMP_temperature;BMP_pressure;BME280_temperature;BME280_humidity;BME280_pressure;Samples;Min_cycle;Max_cycle;Signal;HPM_P1;HPM_P2
2021/06/22 00:00:39;;;;;;;;;;;20.60;54.90;;;;;;1487169;40;20287;-65
2021/06/22 00:01:59;;;;;;;;;;;20.60;54.90;;;;;;1488609;40;19948;-65
2021/06/22 00:03:20;;;;;;;;;;;20.60;54.90;;;;;;1485985;40;19957;-65
2021/06/22 00:04:41;;;;;;;;;;;20.60;54.90;;;;;;1487137;40;19936;-65
2021/06/22 00:06:02;;;;;;;;;;;20.60;54.90;;;;;;1487280;40;19937;-66
2021/06/22 00:07:23;;;;;;;;;;;20.60;54.80;;;;;;1487157;40;19932;-65
2021/06/22 00:08:44;;;;;;;;;;;20.60;54.90;;;;;;1488019;39;19944;-66
2021/06/22 00:10:05;;;;;;;;;;;20.60;54.90;;;;;;1487484;39;19983;-65
2021/06/22 00:11:25;;;;;;;;;;;20.60;54.90;;;;;;1486499;39;19958;-65
2021/06/22 00:12:47;;;;;;;;;;;20.50;54.80;;;;;;1482905;40;19936;-65
2021/06/22 00:14:08;;;;;;;;;;;20.50;54.80;;;;;;1484817;40;19936;-65
2021/06/22 00:15:29;;;;;;;;;;;20.50;54.80;;;;;;1487079;40;19940;-65
2021/06/22 00:16:50;;;;;;;;;;;20.60;54.90;;;;;;1486373;40;19964;-65
2021/06/22 00:18:11;;;;;;;;;;;20.50;54.80;;;;;;1485547;40;20160;-65
2021/06/22 00:19:32;;;;;;;;;;;20.50;54.80;;;;;;1487147;40;19936;-65
2021/06/22 00:20:53;;;;;;;;;;;20.50;54.80;;;;;;1486919;40;20263;-65
2021/06/22 00:22:13;;;;;;;;;;;20.40;54.80;;;;;;1485625;40;19932;-65
2021/06/22 00:23:34;;;;;;;;;;;20.50;54.80;;;;;;1487974;40;19947;-66
2021/06/22 00:24:55;;;;;;;;;;;20.50;54.80;;;;;;1486718;40;19979;-65
2021/06/22 00:26:16;;;;;;;;;;;20.50;54.80;;;;;;1487079;40;19943;-66
2021/06/22 00:27:37;;;;;;;;;;;20.50;54.80;;;;;;1486911;40;19940;-65
2021/06/22 00:28:58;;;;;;;;;;;20.40;54.80;;;;;;1482535;40;20268;-66
2021/06/22 00:30:19;;;;;;;;;;;20.40;54.80;;;;;;1485298;40;19932;-65
2021/06/22 00:31:40;;;;;;;;;;;20.40;54.80;;;;;;1487110;40;20176;-66
2021/06/22 00:33:00;;;;;;;;;;;20.40;54.80;;;;;;1486341;40;20177;-66
2021/06/22 00:34:21;;;;;;;;;;;20.40;54.80;;;;;;1487868;40;19932;-66
2021/06/22 00:35:42;;;;;;;;;;;20.40;54.80;;;;;;1486141;40;20261;-65
2021/06/22 00:37:03;;;;;;;;;;;20.40;54.80;;;;;;1487549;40;20186;-65
2021/06/22 00:38:23;;;;;;;;;;;20.40;54.80;;;;;;1486861;40;19931;-65
2021/06/22 00:39:45;;;;;;;;;;;20.40;54.80;;;;;;1486598;40;19987;-65
2021/06/22 00:41:06;;;;;;;;;;;20.40;54.80;;;;;;1486799;40;19943;-66
2021/06/22 00:42:27;;;;;;;;;;;20.40;54.80;;;;;;1487089;40;19976;-65
2021/06/22 00:43:47;;;;;;;;;;;20.40;54.70;;;;;;1486307;40;19944;-66
2021/06/22 00:45:09;;;;;;;;;;;20.40;54.70;;;;;;1484961;40;20251;-66
2021/06/22 00:46:30;;;;;;;;;;;20.40;54.70;;;;;;1487228;40;20386;-65
2021/06/22 00:47:50;;;;;;;;;;;20.40;54.70;;;;;;1485288;39;19945;-65
2021/06/22 00:49:11;;;;;;;;;;;20.40;54.70;;;;;;1486708;40;20653;-66
2021/06/22 00:50:32;;;;;;;;;;;20.40;54.70;;;;;;1487578;40;19940;-65
2021/06/22 00:51:53;;;;;;;;;;;20.40;54.80;;;;;;1487437;40;20197;-65
2021/06/22 00:53:13;;;;;;;;;;;20.30;54.70;;;;;;1486949;40;19936;-65
2021/06/22 00:54:35;;;;;;;;;;;20.30;54.70;;;;;;1487908;40;19939;-65
2021/06/22 00:55:56;;;;;;;;;;;20.40;54.70;;;;;;1485747;40;19939;-65
2021/06/22 00:57:18;;;;;;;;;;;20.30;54.70;;;;;;1488212;40;20255;-66
2021/06/22 00:58:39;;;;;;;;;;;20.30;54.60;;;;;;1486616;40;19984;-66
2021/06/22 01:00:01;;;;;;;;;;;20.30;54.60;;;;;;1487352;39;20287;-65
2021/06/22 01:01:22;;;;;;;;;;;20.30;54.60;;;;;;1488236;39;19939;-66
2021/06/22 01:02:43;;;;;;;;;;;20.30;54.60;;;;;;1488541;40;19939;-66
2021/06/22 01:04:03;;;;;;;;;;;20.30;54.60;;;;;;1486105;40;19932;-66
2021/06/22 01:05:24;;;;;;;;;;;20.30;54.60;;;;;;1487077;40;19953;-65
2021/06/22 01:06:45;;;;;;;;;;;20.30;54.60;;;;;;1485615;40;19932;-65
2021/06/22 01:08:06;;;;;;;;;;;20.30;54.60;;;;;;1487668;39;20160;-65
2021/06/22 01:09:28;;;;;;;;;;;20.30;54.60;;;;;;1488103;40;19936;-65
2021/06/22 01:10:49;;;;;;;;;;;20.30;54.60;;;;;;1485580;40;19936;-65
2021/06/22 01:12:10;;;;;;;;;;;20.30;54.60;;;;;;1482543;40;19940;-65
2021/06/22 01:13:31;;;;;;;;;;;20.30;54.60;;;;;;1486559;40;19951;-65
2021/06/22 01:14:52;;;;;;;;;;;20.30;54.60;;;;;;1486810;40;19932;-65
2021/06/22 01:16:23;;;;;;;;;;;20.30;54.60;;;;;;1486895;40;20390;-65
2021/06/22 01:17:44;;;;;;;;;;;20.30;54.60;;;;;;1485841;40;19990;-65
2021/06/22 01:19:07;;;;;;;;;;;20.30;54.60;;;;;;1486773;40;20021;-65
2021/06/22 01:20:31;;;;;;;;;;;20.30;54.60;;;;;;1486418;40;20017;-65
2021/06/22 01:21:52;;;;;;;;;;;20.30;54.60;;;;;;1486159;40;19940;-65
2021/06/22 01:23:13;;;;;;;;;;;20.30;54.50;;;;;;1487159;40;20261;-65
2021/06/22 01:24:34;;;;;;;;;;;20.30;54.50;;;;;;1486837;40;19952;-65
2021/06/22 01:25:54;;;;;;;;;;;20.30;54.50;;;;;;1482896;40;19936;-65
2021/06/22 01:27:19;;;;;;;;;;;20.30;54.50;;;;;;1485292;39;20244;-65
2021/06/22 01:28:41;;;;;;;;;;;20.30;54.50;;;;;;1486011;39;19947;-65
2021/06/22 01:30:03;;;;;;;;;;;20.30;54.50;;;;;;1487105;40;19951;-66
2021/06/22 01:31:24;;;;;;;;;;;20.30;54.50;;;;;;1486764;40;19942;-65
2021/06/22 01:32:45;;;;;;;;;;;20.30;54.50;;;;;;1487775;40;20024;-65
2021/06/22 01:34:05;;;;;;;;;;;20.30;54.50;;;;;;1482546;40;19958;-66
2021/06/22 01:35:28;;;;;;;;;;;20.30;54.50;;;;;;1486100;40;19947;-65
2021/06/22 01:36:48;;;;;;;;;;;20.30;54.40;;;;;;1487602;40;19952;-65
2021/06/22 01:38:09;;;;;;;;;;;20.30;54.40;;;;;;1487028;40;20221;-65
2021/06/22 01:39:30;;;;;;;;;;;20.30;54.40;;;;;;1486347;40;20268;-65
2021/06/22 01:40:51;;;;;;;;;;;20.30;54.40;;;;;;1486546;40;19932;-65
2021/06/22 01:42:12;;;;;;;;;;;20.30;54.30;;;;;;1486368;40;19936;-65
2021/06/22 01:43:33;;;;;;;;;;;20.20;54.30;;;;;;1486261;40;19943;-65
2021/06/22 01:44:54;;;;;;;;;;;20.20;54.30;;;;;;1486375;40;20180;-65
2021/06/22 01:46:15;;;;;;;;;;;20.20;54.30;;;;;;1484274;40;19962;-65
2021/06/22 01:47:36;;;;;;;;;;;20.20;54.30;;;;;;1485575;40;19952;-65
2021/06/22 01:48:57;;;;;;;;;;;20.20;54.30;;;;;;1486980;39;19936;-65
2021/06/22 01:50:18;;;;;;;;;;;20.20;54.20;;;;;;1485154;40;20053;-65
2021/06/22 01:51:39;;;;;;;;;;;20.20;54.20;;;;;;1485535;40;19944;-65
2021/06/22 01:53:00;;;;;;;;;;;20.20;54.20;;;;;;1486950;39;19947;-65
2021/06/22 01:54:20;;;;;;;;;;;20.20;54.20;;;;;;1486811;39;19932;-65
2021/06/22 01:55:43;;;;;;;;;;;20.20;54.10;;;;;;1483682;40;19941;-65
2021/06/22 01:57:04;;;;;;;;;;;20.20;54.10;;;;;;1487556;40;19946;-65
2021/06/22 01:58:25;;;;;;;;;;;20.20;54.10;;;;;;1486318;40;19943;-65
2021/06/22 01:59:45;;;;;;;;;;;20.20;54.10;;;;;;1486718;40;19936;-65
2021/06/22 02:01:06;;;;;;;;;;;20.20;54.10;;;;;;1485196;40;19955;-65
2021/06/22 02:02:27;;;;;;;;;;;20.10;54.10;;;;;;1485851;40;19935;-65
2021/06/22 02:03:48;;;;;;;;;;;20.10;54.00;;;;;;1485913;40;19948;-65
2021/06/22 02:05:09;;;;;;;;;;;20.10;54.00;;;;;;1485242;40;19933;-65
2021/06/22 02:06:29;;;;;;;;;;;20.10;53.90;;;;;;1486138;40;20029;-65
2021/06/22 02:07:50;;;;;;;;;;;20.10;54.00;;;;;;1485645;40;19940;-65
2021/06/22 02:09:11;;;;;;;;;;;20.10;53.90;;;;;;1484642;40;19940;-65
2021/06/22 02:10:32;;;;;;;;;;;20.10;54.00;;;;;;1483308;40;19936;-65
2021/06/22 02:11:52;;;;;;;;;;;20.10;54.00;;;;;;1485434;40;19936;-65
2021/06/22 02:13:14;;;;;;;;;;;20.10;54.00;;;;;;1485746;39;19963;-65
2021/06/22 02:14:34;;;;;;;;;;;20.00;54.00;;;;;;1488092;39;20260;-65
2021/06/22 02:15:56;;;;;;;;;;;20.00;54.10;;;;;;1485483;40;20056;-65
2021/06/22 02:17:17;;;;;;;;;;;20.00;54.10;;;;;;1486764;40;19932;-66
2021/06/22 02:18:38;;;;;;;;;;;20.00;54.10;;;;;;1488400;40;19936;-65
2021/06/22 02:19:58;;;;;;;;;;;20.00;54.20;;;;;;1486835;40;20480;-65
2021/06/22 02:21:19;;;;;;;;;;;20.00;54.20;;;;;;1486569;40;19939;-65
2021/06/22 02:22:40;;;;;;;;;;;20.00;54.20;;;;;;1486381;40;19943;-65
2021/06/22 02:24:01;;;;;;;;;;;20.00;54.20;;;;;;1487242;40;20024;-65
2021/06/22 02:25:22;;;;;;;;;;;20.00;54.20;;;;;;1486486;40;19940;-65
2021/06/22 02:26:42;;;;;;;;;;;19.90;54.20;;;;;;1487769;40;19943;-65
2021/06/22 02:28:04;;;;;;;;;;;20.00;54.20;;;;;;1486728;40;19943;-65
2021/06/22 02:29:25;;;;;;;;;;;19.90;54.20;;;;;;1487570;40;19936;-65
2021/06/22 02:30:46;;;;;;;;;;;19.90;54.20;;;;;;1486748;40;20460;-65
2021/06/22 02:32:07;;;;;;;;;;;19.90;54.20;;;;;;1484172;40;19947;-65
2021/06/22 02:33:28;;;;;;;;;;;19.90;54.20;;;;;;1487463;40;19955;-65
2021/06/22 02:34:49;;;;;;;;;;;19.90;54.20;;;;;;1486055;39;19936;-65
2021/06/22 02:36:10;;;;;;;;;;;19.90;54.20;;;;;;1486174;40;19932;-65
2021/06/22 02:37:30;;;;;;;;;;;19.90;54.20;;;;;;1485800;39;19948;-65
2021/06/22 02:38:51;;;;;;;;;;;19.90;54.30;;;;;;1487100;40;19946;-65
2021/06/22 02:40:12;;;;;;;;;;;19.90;54.30;;;;;;1487506;40;19944;-65
2021/06/22 02:41:33;;;;;;;;;;;19.80;54.30;;;;;;1485654;40;20157;-65
2021/06/22 02:42:54;;;;;;;;;;;19.80;54.20;;;;;;1485840;39;19951;-65
2021/06/22 02:44:15;;;;;;;;;;;19.80;54.20;;;;;;1486247;39;20247;-65
2021/06/22 02:45:36;;;;;;;;;;;19.80;54.20;;;;;;1485857;40;20174;-65
2021/06/22 02:46:57;;;;;;;;;;;19.80;54.20;;;;;;1485271;40;19947;-65
2021/06/22 02:48:18;;;;;;;;;;;19.80;54.20;;;;;;1486868;40;19936;-65
2021/06/22 02:49:39;;;;;;;;;;;19.80;54.20;;;;;;1486781;40;19951;-65
2021/06/22 02:51:00;;;;;;;;;;;19.80;54.20;;;;;;1486111;40;19933;-65
2021/06/22 02:52:20;;;;;;;;;;;19.70;54.10;;;;;;1486768;40;20236;-65
2021/06/22 02:53:41;;;;;;;;;;;19.70;54.10;;;;;;1486401;40;19932;-65
2021/06/22 02:55:02;;;;;;;;;;;19.70;54.10;;;;;;1487529;40;20254;-65
2021/06/22 02:56:23;;;;;;;;;;;19.70;54.10;;;;;;1483103;40;19936;-65
2021/06/22 02:57:54;;;;;;;;;;;19.70;54.10;;;;;;1484746;40;19937;-65
2021/06/22 02:59:15;;;;;;;;;;;19.70;54.20;;;;;;1487260;40;19942;-65
2021/06/22 03:00:36;;;;;;;;;;;19.70;54.20;;;;;;1485246;40;19940;-65
2021/06/22 03:01:57;;;;;;;;;;;19.70;54.20;;;;;;1486241;40;19972;-65
2021/06/22 03:03:18;;;;;;;;;;;19.70;54.10;;;;;;1483989;39;19937;-65
2021/06/22 03:04:39;;;;;;;;;;;19.70;54.20;;;;;;1484617;40;19944;-65
2021/06/22 03:05:59;;;;;;;;;;;19.60;54.10;;;;;;1485265;40;19940;-65
2021/06/22 03:07:20;;;;;;;;;;;19.60;54.20;;;;;;1486595;40;19947;-65
2021/06/22 03:08:41;;;;;;;;;;;19.60;54.20;;;;;;1487527;40;19944;-66
2021/06/22 03:10:05;;;;;;;;;;;19.60;54.20;;;;;;1484349;40;19940;-66
2021/06/22 03:11:25;;;;;;;;;;;19.60;54.20;;;;;;1485176;39;20623;-65
2021/06/22 03:12:46;;;;;;;;;;;19.60;54.20;;;;;;1487166;40;19952;-65
2021/06/22 03:14:07;;;;;;;;;;;19.60;54.20;;;;;;1487661;40;20647;-65
2021/06/22 03:15:28;;;;;;;;;;;19.60;54.20;;;;;;1486427;40;20140;-65
2021/06/22 03:16:49;;;;;;;;;;;19.60;54.20;;;;;;1485470;40;19996;-65
2021/06/22 03:18:10;;;;;;;;;;;19.60;54.20;;;;;;1486090;40;20085;-65
2021/06/22 03:19:30;;;;;;;;;;;19.60;54.10;;;;;;1484815;40;20259;-65
2021/06/22 03:20:51;;;;;;;;;;;19.60;54.10;;;;;;1486498;40;19932;-65
2021/06/22 03:22:12;;;;;;;;;;;19.60;54.10;;;;;;1486421;40;20149;-65
2021/06/22 03:23:33;;;;;;;;;;;19.50;54.10;;;;;;1486654;40;19933;-65
2021/06/22 03:24:54;;;;;;;;;;;19.50;54.10;;;;;;1486727;40;20255;-67
2021/06/22 03:26:15;;;;;;;;;;;19.60;54.20;;;;;;1483202;40;20267;-66
2021/06/22 03:27:36;;;;;;;;;;;19.50;54.20;;;;;;1486346;40;19932;-65
2021/06/22 03:28:57;;;;;;;;;;;19.50;54.20;;;;;;1488249;40;20242;-66
2021/06/22 03:30:18;;;;;;;;;;;19.50;54.20;;;;;;1487726;40;19939;-65
2021/06/22 03:31:38;;;;;;;;;;;19.50;54.20;;;;;;1485109;40;20065;-65
2021/06/22 03:32:59;;;;;;;;;;;19.50;54.70;;;;;;1486629;40;19947;-65
2021/06/22 03:34:20;;;;;;;;;;;19.50;54.20;;;;;;1487194;40;20253;-66
2021/06/22 03:35:41;;;;;;;;;;;19.50;54.20;;;;;;1486699;40;19944;-65
2021/06/22 03:37:02;;;;;;;;;;;19.50;54.20;;;;;;1488502;40;19939;-66
2021/06/22 03:38:23;;;;;;;;;;;19.50;54.20;;;;;;1486686;40;19936;-65
2021/06/22 03:39:44;;;;;;;;;;;19.50;54.20;;;;;;1486142;40;19933;-65
2021/06/22 03:41:07;;;;;;;;;;;19.50;54.20;;;;;;1486815;40;19940;-65
2021/06/22 03:42:28;;;;;;;;;;;19.50;54.20;;;;;;1484790;40;19943;-65
2021/06/22 03:43:49;;;;;;;;;;;19.50;54.30;;;;;;1485146;40;19940;-65
2021/06/22 03:45:10;;;;;;;;;;;19.50;54.30;;;;;;1486945;40;19936;-65
2021/06/22 03:46:31;;;;;;;;;;;19.40;54.20;;;;;;1486842;40;19944;-65
2021/06/22 03:47:52;;;;;;;;;;;19.40;54.20;;;;;;1484998;40;19936;-65
2021/06/22 03:49:12;;;;;;;;;;;19.40;54.20;;;;;;1487335;39;19932;-65
2021/06/22 03:50:33;;;;;;;;;;;19.40;54.20;;;;;;1486502;39;19936;-65
2021/06/22 03:51:54;;;;;;;;;;;19.40;54.20;;;;;;1487382;40;19954;-65
2021/06/22 03:53:15;;;;;;;;;;;19.40;54.20;;;;;;1486507;40;20090;-65
2021/06/22 03:54:36;;;;;;;;;;;19.40;54.30;;;;;;1487191;40;20052;-65
2021/06/22 03:55:57;;;;;;;;;;;19.40;54.30;;;;;;1486025;40;19952;-65
2021/06/22 03:57:18;;;;;;;;;;;19.30;54.30;;;;;;1486130;40;19956;-65
2021/06/22 03:58:38;;;;;;;;;;;19.40;54.30;;;;;;1486076;40;19932;-65
2021/06/22 03:59:59;;;;;;;;;;;19.30;54.30;;;;;;1487247;40;20197;-65
2021/06/22 04:01:20;;;;;;;;;;;19.30;54.30;;;;;;1485624;40;20062;-65
2021/06/22 04:02:41;;;;;;;;;;;19.40;54.40;;;;;;1485780;40;19939;-65
2021/06/22 04:04:02;;;;;;;;;;;19.30;54.40;;;;;;1486977;40;19991;-65
2021/06/22 04:05:23;;;;;;;;;;;19.40;54.40;;;;;;1487321;40;19952;-65
2021/06/22 04:06:44;;;;;;;;;;;19.40;54.40;;;;;;1486666;40;19940;-65
2021/06/22 04:08:05;;;;;;;;;;;19.30;54.40;;;;;;1487146;39;19939;-64
2021/06/22 04:09:26;;;;;;;;;;;19.30;54.40;;;;;;1486632;39;20217;-65
2021/06/22 04:10:47;;;;;;;;;;;19.40;54.40;;;;;;1486395;40;20028;-65
2021/06/22 04:12:08;;;;;;;;;;;19.30;54.40;;;;;;1486531;40;19936;-65
2021/06/22 04:13:29;;;;;;;;;;;19.30;54.50;;;;;;1486680;40;19944;-65
2021/06/22 04:14:50;;;;;;;;;;;19.30;54.50;;;;;;1487911;40;20614;-65
2021/06/22 04:16:11;;;;;;;;;;;19.30;54.50;;;;;;1485322;40;20189;-65
2021/06/22 04:17:32;;;;;;;;;;;19.30;54.50;;;;;;1487439;40;20168;-65
2021/06/22 04:18:52;;;;;;;;;;;19.30;54.50;;;;;;1483376;40;20065;-65
2021/06/22 04:20:13;;;;;;;;;;;19.30;54.50;;;;;;1485811;40;19932;-65
2021/06/22 04:21:34;;;;;;;;;;;19.30;54.50;;;;;;1487259;40;20279;-65
2021/06/22 04:22:55;;;;;;;;;;;19.30;54.50;;;;;;1487141;40;20033;-65
2021/06/22 04:24:16;;;;;;;;;;;19.30;54.60;;;;;;1481427;40;19939;-65
2021/06/22 04:25:36;;;;;;;;;;;19.30;54.60;;;;;;1485194;40;19951;-65
2021/06/22 04:26:57;;;;;;;;;;;19.30;54.70;;;;;;1486937;40;19939;-65
2021/06/22 04:28:18;;;;;;;;;;;19.30;54.60;;;;;;1487014;40;19932;-65
2021/06/22 04:29:39;;;;;;;;;;;19.30;54.60;;;;;;1486055;39;20251;-65
2021/06/22 04:31:00;;;;;;;;;;;19.20;54.50;;;;;;1486924;39;19951;-65
2021/06/22 04:32:21;;;;;;;;;;;19.30;54.60;;;;;;1488656;39;19932;-65
2021/06/22 04:33:41;;;;;;;;;;;19.30;55.10;;;;;;1489296;39;20241;-65
2021/06/22 04:35:02;;;;;;;;;;;19.20;54.60;;;;;;1486298;40;19935;-65
2021/06/22 04:36:23;;;;;;;;;;;19.20;54.60;;;;;;1486941;39;19935;-65
2021/06/22 04:37:44;;;;;;;;;;;19.20;54.60;;;;;;1486011;39;19943;-65
2021/06/22 04:39:05;;;;;;;;;;;19.20;55.20;;;;;;1485541;40;19943;-65
2021/06/22 04:40:26;;;;;;;;;;;19.20;54.60;;;;;;1487294;40;19952;-65
2021/06/22 04:41:47;;;;;;;;;;;19.20;54.70;;;;;;1488485;40;19940;-65
2021/06/22 04:43:07;;;;;;;;;;;19.20;54.70;;;;;;1486760;40;20341;-65
2021/06/22 04:44:28;;;;;;;;;;;19.20;54.70;;;;;;1485779;40;19968;-65
2021/06/22 04:45:49;;;;;;;;;;;19.20;54.70;;;;;;1487091;40;20357;-65
2021/06/22 04:47:10;;;;;;;;;;;19.20;54.80;;;;;;1486268;40;20235;-65
2021/06/22 04:48:31;;;;;;;;;;;19.20;54.80;;;;;;1488185;40;19951;-65
2021/06/22 04:49:51;;;;;;;;;;;19.20;54.80;;;;;;1487362;39;19972;-65
2021/06/22 04:51:12;;;;;;;;;;;19.20;54.80;;;;;;1487954;39;19936;-65
2021/06/22 04:52:33;;;;;;;;;;;19.20;54.80;;;;;;1486406;40;19951;-65
2021/06/22 04:53:54;;;;;;;;;;;19.20;54.80;;;;;;1486115;40;20002;-65
2021/06/22 04:55:16;;;;;;;;;;;19.20;54.80;;;;;;1487107;40;20462;-65
2021/06/22 04:56:38;;;;;;;;;;;19.20;54.80;;;;;;1486711;40;19951;-65
2021/06/22 04:57:59;;;;;;;;;;;19.20;54.90;;;;;;1487406;39;19952;-65
2021/06/22 04:59:20;;;;;;;;;;;19.20;54.80;;;;;;1485385;40;20358;-65
2021/06/22 05:00:41;;;;;;;;;;;19.20;54.90;;;;;;1485510;40;19936;-65
2021/06/22 05:02:02;;;;;;;;;;;19.30;55.00;;;;;;1486143;39;20061;-65
2021/06/22 05:03:23;;;;;;;;;;;19.20;54.90;;;;;;1485690;40;19932;-65
2021/06/22 05:04:45;;;;;;;;;;;19.20;54.90;;;;;;1486576;40;20176;-65
2021/06/22 05:06:05;;;;;;;;;;;19.20;55.00;;;;;;1487602;39;19962;-65
2021/06/22 05:07:26;;;;;;;;;;;19.20;55.00;;;;;;1486774;39;19952;-65
2021/06/22 05:08:47;;;;;;;;;;;19.20;55.00;;;;;;1486545;39;19983;-65
2021/06/22 05:10:08;;;;;;;;;;;19.20;55.00;;;;;;1486470;39;19947;-65
2021/06/22 05:11:29;;;;;;;;;;;19.20;55.00;;;;;;1485776;40;19988;-65
2021/06/22 05:12:50;;;;;;;;;;;19.30;55.10;;;;;;1487050;40;19932;-65
2021/06/22 05:14:11;;;;;;;;;;;19.30;55.00;;;;;;1485614;39;20041;-65
2021/06/22 05:15:32;;;;;;;;;;;19.30;55.00;;;;;;1486452;39;19940;-65
2021/06/22 05:16:53;;;;;;;;;;;19.30;55.10;;;;;;1484536;40;19997;-65
2021/06/22 05:18:13;;;;;;;;;;;19.30;55.10;;;;;;1487281;40;20358;-65
2021/06/22 05:19:34;;;;;;;;;;;19.30;55.10;;;;;;1486606;40;19940;-65
2021/06/22 05:20:55;;;;;;;;;;;19.30;55.10;;;;;;1487049;40;19942;-65
2021/06/22 05:22:16;;;;;;;;;;;19.30;55.10;;;;;;1484696;40;19996;-65
2021/06/22 05:23:37;;;;;;;;;;;19.30;55.20;;;;;;1484626;40;19936;-65
2021/06/22 05:24:58;;;;;;;;;;;19.30;55.10;;;;;;1484912;40;19951;-65
2021/06/22 05:26:18;;;;;;;;;;;19.30;55.10;;;;;;1485910;39;19936;-65
2021/06/22 05:27:39;;;;;;;;;;;19.30;55.10;;;;;;1488078;39;20048;-65
2021/06/22 05:29:00;;;;;;;;;;;19.30;55.10;;;;;;1482930;40;19948;-65
2021/06/22 05:30:21;;;;;;;;;;;19.30;55.10;;;;;;1484467;40;19951;-65
2021/06/22 05:31:41;;;;;;;;;;;19.30;55.10;;;;;;1485376;39;19964;-65
2021/06/22 05:33:03;;;;;;;;;;;19.30;55.20;;;;;;1487432;39;20180;-65
2021/06/22 05:34:23;;;;;;;;;;;19.30;55.20;;;;;;1485742;40;20162;-65
2021/06/22 05:35:44;;;;;;;;;;;19.30;55.20;;;;;;1487590;40;20299;-65
2021/06/22 05:37:05;;;;;;;;;;;19.30;55.20;;;;;;1487366;40;19944;-65
2021/06/22 05:38:26;;;;;;;;;;;19.30;55.20;;;;;;1487693;40;19955;-65
2021/06/22 05:39:47;;;;;;;;;;;19.30;55.20;;;;;;1486921;40;19992;-65
2021/06/22 05:41:08;;;;;;;;;;;19.30;55.20;;;;;;1487309;40;20260;-65
2021/06/22 05:42:29;;;;;;;;;;;19.30;55.20;;;;;;1487324;40;20033;-65
2021/06/22 05:43:50;;;;;;;;;;;19.30;55.20;;;;;;1486390;40;20021;-65
2021/06/22 05:45:11;;;;;;;;;;;19.30;55.20;;;;;;1486950;40;19952;-65
2021/06/22 05:46:31;;;;;;;;;;;19.30;55.20;;;;;;1486555;40;19940;-65
2021/06/22 05:47:52;;;;;;;;;;;19.30;55.20;;;;;;1484409;40;20229;-65
2021/06/22 05:49:13;;;;;;;;;;;19.40;55.30;;;;;;1487224;40;19943;-65
2021/06/22 05:50:34;;;;;;;;;;;19.40;55.30;;;;;;1486601;40;19947;-65
2021/06/22 05:51:55;;;;;;;;;;;19.30;55.30;;;;;;1486776;40;19967;-65
2021/06/22 05:53:16;;;;;;;;;;;19.40;55.30;;;;;;1485904;40;20302;-65
2021/06/22 05:54:37;;;;;;;;;;;19.40;55.20;;;;;;1488398;40;19946;-65
2021/06/22 05:55:58;;;;;;;;;;;19.40;55.20;;;;;;1486775;40;19940;-65
2021/06/22 05:57:19;;;;;;;;;;;19.40;55.20;;;;;;1487450;40;19936;-65
2021/06/22 05:58:40;;;;;;;;;;;19.40;55.20;;;;;;1486085;40;19936;-65
2021/06/22 06:00:01;;;;;;;;;;;19.40;55.20;;;;;;1486202;40;19957;-65
2021/06/22 06:01:22;;;;;;;;;;;19.40;55.20;;;;;;1486273;40;20038;-65
2021/06/22 06:02:42;;;;;;;;;;;19.40;55.20;;;;;;1482033;40;20371;-65
2021/06/22 06:04:03;;;;;;;;;;;19.40;55.20;;;;;;1485144;40;20212;-65
2021/06/22 06:05:24;;;;;;;;;;;19.40;55.20;;;;;;1486852;40;20028;-65
2021/06/22 06:06:45;;;;;;;;;;;19.50;55.20;;;;;;1486021;40;20276;-65
2021/06/22 06:08:06;;;;;;;;;;;19.50;55.20;;;;;;1486874;40;20032;-65
2021/06/22 06:09:27;;;;;;;;;;;19.50;55.20;;;;;;1486444;40;20012;-65
2021/06/22 06:10:48;;;;;;;;;;;19.50;55.20;;;;;;1487078;39;20024;-64
2021/06/22 06:12:09;;;;;;;;;;;19.50;55.20;;;;;;1485798;39;19968;-66
2021/06/22 06:13:33;;;;;;;;;;;19.50;55.20;;;;;;1487277;39;20315;-67
2021/06/22 06:14:54;;;;;;;;;;;19.50;55.20;;;;;;1487409;40;19943;-64
2021/06/22 06:16:15;;;;;;;;;;;19.50;55.20;;;;;;1486668;39;19939;-64
2021/06/22 06:17:36;;;;;;;;;;;19.50;55.20;;;;;;1487956;40;20271;-66
2021/06/22 06:18:57;;;;;;;;;;;19.50;55.20;;;;;;1486527;40;19943;-65
2021/06/22 06:20:18;;;;;;;;;;;19.50;55.20;;;;;;1484283;40;19937;-66
2021/06/22 06:21:39;;;;;;;;;;;19.50;55.20;;;;;;1487814;39;20141;-66
2021/06/22 06:23:00;;;;;;;;;;;19.50;55.20;;;;;;1487056;40;19932;-66
2021/06/22 06:24:21;;;;;;;;;;;19.60;55.20;;;;;;1487348;40;19940;-66
2021/06/22 06:25:42;;;;;;;;;;;19.50;55.20;;;;;;1486620;40;20306;-66
2021/06/22 06:27:08;;;;;;;;;;;19.60;55.20;;;;;;1486641;40;19994;-66
2021/06/22 06:28:32;;;;;;;;;;;19.60;55.20;;;;;;1486217;40;20205;-67
2021/06/22 06:31:13;;;;;;;;;;;19.60;55.30;;;;;;1485087;40;19940;-66
2021/06/22 06:32:34;;;;;;;;;;;19.60;55.30;;;;;;1485880;40;19933;-66
2021/06/22 06:33:55;;;;;;;;;;;19.60;55.30;;;;;;1487981;40;19936;-66
2021/06/22 06:35:17;;;;;;;;;;;19.60;55.30;;;;;;1486963;39;19932;-66
2021/06/22 06:36:37;;;;;;;;;;;19.60;55.30;;;;;;1486848;40;20283;-66
2021/06/22 06:37:58;;;;;;;;;;;19.60;55.70;;;;;;1487171;40;19936;-66
2021/06/22 06:39:19;;;;;;;;;;;19.60;55.10;;;;;;1484874;40;20044;-66
2021/06/22 06:40:40;;;;;;;;;;;19.60;55.10;;;;;;1486700;40;19943;-66
2021/06/22 06:42:01;;;;;;;;;;;19.60;55.10;;;;;;1486999;40;19936;-66
2021/06/22 06:43:22;;;;;;;;;;;19.60;55.10;;;;;;1486277;40;20179;-66
2021/06/22 06:44:43;;;;;;;;;;;19.60;55.00;;;;;;1480674;40;20176;-66
2021/06/22 06:46:03;;;;;;;;;;;19.60;55.00;;;;;;1484928;40;19984;-66
2021/06/22 06:47:24;;;;;;;;;;;19.60;55.00;;;;;;1486038;40;19972;-66
2021/06/22 06:48:46;;;;;;;;;;;19.50;54.90;;;;;;1486953;40;20145;-66
2021/06/22 06:50:07;;;;;;;;;;;19.60;55.00;;;;;;1486486;40;19944;-66
2021/06/22 06:51:28;;;;;;;;;;;19.60;55.00;;;;;;1486890;40;19983;-66
2021/06/22 06:52:49;;;;;;;;;;;19.60;55.00;;;;;;1484248;40;19937;-66
2021/06/22 06:54:10;;;;;;;;;;;19.60;55.00;;;;;;1485532;40;20245;-66
2021/06/22 06:55:42;;;;;;;;;;;19.60;54.90;;;;;;1485370;40;19949;-66
2021/06/22 06:57:03;;;;;;;;;;;19.60;54.90;;;;;;1487198;40;19943;-66
2021/06/22 06:58:24;;;;;;;;;;;19.60;54.90;;;;;;1485745;40;19947;-66
2021/06/22 06:59:45;;;;;;;;;;;19.60;54.90;;;;;;1487680;39;19949;-66
2021/06/22 07:01:06;;;;;;;;;;;19.60;54.90;;;;;;1487207;40;19936;-66
2021/06/22 07:02:26;;;;;;;;;;;19.60;54.90;;;;;;1487338;39;19936;-66
2021/06/22 07:03:47;;;;;;;;;;;19.60;54.90;;;;;;1485726;40;19972;-66
2021/06/22 07:05:08;;;;;;;;;;;19.60;55.00;;;;;;1486130;40;19940;-66
2021/06/22 07:06:29;;;;;;;;;;;19.60;55.00;;;;;;1485320;40;19936;-66
2021/06/22 07:07:50;;;;;;;;;;;19.60;54.90;;;;;;1486753;40;19971;-66
2021/06/22 07:09:10;;;;;;;;;;;19.60;54.90;;;;;;1485701;40;19937;-66
2021/06/22 07:10:32;;;;;;;;;;;19.60;54.90;;;;;;1485122;40;19940;-66
2021/06/22 07:11:56;;;;;;;;;;;19.60;55.00;;;;;;1487834;40;20201;-66
2021/06/22 07:13:17;;;;;;;;;;;19.70;55.00;;;;;;1485851;39;19936;-66
2021/06/22 07:14:38;;;;;;;;;;;19.60;55.50;;;;;;1487017;40;19931;-66
2021/06/22 07:15:59;;;;;;;;;;;19.60;55.00;;;;;;1487583;40;20049;-66
2021/06/22 07:17:20;;;;;;;;;;;19.60;55.00;;;;;;1486647;40;19936;-66
2021/06/22 07:18:40;;;;;;;;;;;19.60;55.00;;;;;;1485539;40;19932;-66
2021/06/22 07:20:03;;;;;;;;;;;19.60;55.00;;;;;;1487251;40;19971;-66
2021/06/22 07:21:24;;;;;;;;;;;19.60;55.00;;;;;;1484820;40;19990;-66
2021/06/22 07:22:44;;;;;;;;;;;19.70;55.10;;;;;;1486960;40;19935;-66
2021/06/22 07:24:05;;;;;;;;;;;19.70;55.20;;;;;;1486078;40;19937;-66
2021/06/22 07:25:26;;;;;;;;;;;19.70;55.20;;;;;;1485993;40;19932;-66
2021/06/22 07:26:47;;;;;;;;;;;19.70;55.20;;;;;;1487232;40;19979;-66
2021/06/22 07:28:08;;;;;;;;;;;19.70;55.20;;;;;;1487805;40;19936;-66
2021/06/22 07:29:29;;;;;;;;;;;19.70;55.20;;;;;;1486219;40;19976;-66
2021/06/22 07:30:50;;;;;;;;;;;19.70;55.20;;;;;;1486397;40;19936;-66
2021/06/22 07:32:11;;;;;;;;;;;19.70;55.20;;;;;;1486596;40;19952;-66
2021/06/22 07:33:32;;;;;;;;;;;19.70;55.20;;;;;;1486089;40;20023;-66
2021/06/22 07:34:52;;;;;;;;;;;19.70;55.20;;;;;;1487323;39;19947;-66
2021/06/22 07:36:13;;;;;;;;;;;19.70;55.20;;;;;;1487362;39;19936;-66
2021/06/22 07:37:34;;;;;;;;;;;19.70;55.20;;;;;;1487229;39;21056;-66
2021/06/22 07:38:55;;;;;;;;;;;19.70;55.30;;;;;;1486397;40;19936;-66
2021/06/22 07:40:16;;;;;;;;;;;19.70;55.30;;;;;;1486818;40;19946;-66
2021/06/22 07:41:36;;;;;;;;;;;19.80;55.40;;;;;;1486752;40;20010;-66
2021/06/22 07:42:57;;;;;;;;;;;19.70;55.30;;;;;;1486207;40;19943;-65
2021/06/22 07:44:18;;;;;;;;;;;19.80;55.40;;;;;;1486285;40;20237;-65
2021/06/22 07:45:39;;;;;;;;;;;19.80;55.40;;;;;;1485844;40;20280;-65
2021/06/22 07:47:00;;;;;;;;;;;19.80;55.40;;;;;;1486000;40;20165;-66
2021/06/22 07:48:21;;;;;;;;;;;19.80;55.40;;;;;;1488137;40;19972;-65
2021/06/22 07:49:42;;;;;;;;;;;19.80;55.40;;;;;;1487846;40;19936;-65
2021/06/22 07:51:03;;;;;;;;;;;19.80;55.50;;;;;;1485858;40;19948;-65
2021/06/22 07:52:24;;;;;;;;;;;19.80;55.50;;;;;;1487557;40;20169;-65